Smithville, Texas
Current Conditions -  °F | °C
As of 2:55 AM on Sunday 23 Nov 2014 (Local Time) from K3T5 Reporting Station
Overcast Overcast  
Wind Chill: 62°   Ceiling: 1000
Heat Index: 62°   Visibility: 10mi
Dew Point: 61°   Wind: 5mph
Humidity: 98%   Direction: 220°SW
Pressure: 29.67"   Gusts: NA
Location:  30.01°N, 97.16°W
Report Text: K3T5 230855Z AUTO 22004KT 10SM OVC010 17/16 A2967 RMK AO2 T01650162
Loading
Personal Weather Stations






























Interactive Weather Map New forecast layout! Learn more

10-Day Weather Forecast

Advertisements
Track Severe Weather on mobile